Time;durP1;ratioP1;P1;durP2;ratioP2;P2;SDS_P1;SDS_P2;PMS_P1;PMS_P2;Temp;Humidity;BMP_temperature;BMP_pressure;BME280_temperature;BME280_humidity;BME280_pressure;Samples;Min_cycle;Max_cycle;Signal;HPM_P1;HPM_P2
2021/12/12 00:00:15;;;;;;;34.47;20.42;;;;;;;4.98;85.86;101990.34;7391155;19;20110;-60
2021/12/12 00:02:56;;;;;;;36.45;20.42;;;;;;;4.99;86.03;101981.69;7390724;19;20104;-57
2021/12/12 00:05:31;;;;;;;36.63;19.40;;;;;;;4.98;86.17;101972.16;7392201;19;20025;-62
2021/12/12 00:08:00;;;;;;;33.40;18.90;;;;;;;5.00;86.10;101969.56;7391529;19;20006;-59
2021/12/12 00:10:33;;;;;;;35.42;18.73;;;;;;;5.03;86.28;101967.81;7392092;19;20018;-60
2021/12/12 00:13:07;;;;;;;34.63;19.58;;;;;;;5.06;86.17;101966.97;7390047;19;20014;-56
2021/12/12 00:15:38;;;;;;;37.72;18.80;;;;;;;5.03;85.86;101962.63;7389945;19;20053;-58
2021/12/12 00:18:08;;;;;;;35.67;19.80;;;;;;;5.05;86.03;101962.63;7391605;19;20384;-61
2021/12/12 00:20:37;;;;;;;34.20;19.10;;;;;;;5.05;85.89;101959.19;7391025;19;20107;-56
2021/12/12 00:23:07;;;;;;;34.90;19.20;;;;;;;5.07;85.99;101960.03;7391237;19;20022;-61
2021/12/12 00:25:42;;;;;;;35.03;19.52;;;;;;;5.08;85.92;101951.38;7390671;19;20014;-59
2021/12/12 00:28:15;;;;;;;33.80;18.98;;;;;;;5.10;85.81;101954.81;7391103;19;20456;-58
2021/12/12 00:30:47;;;;;;;32.13;18.67;;;;;;;5.12;85.62;101958.28;7386838;19;20468;-60
2021/12/12 00:33:17;;;;;;;30.58;18.13;;;;;;;5.10;85.59;101955.69;7391350;19;20018;-55
2021/12/12 00:35:46;;;;;;;36.78;17.48;;;;;;;5.08;85.47;101953.97;7391361;19;20022;-55
2021/12/12 00:38:19;;;;;;;32.60;17.92;;;;;;;5.08;85.50;101946.16;7390429;19;20018;-54
2021/12/12 00:40:49;;;;;;;;;;;;;;;5.10;85.73;101942.72;7391790;19;20504;-53
2021/12/12 00:43:28;;;;;;;34.75;16.65;;;;;;;5.13;85.62;101942.69;7389053;19;19911;-54
2021/12/12 00:46:03;;;;;;;32.25;16.90;;;;;;;5.11;85.24;101934.00;7390009;19;20010;-54
2021/12/12 00:48:34;;;;;;;28.20;16.42;;;;;;;5.12;85.14;101940.09;7390810;19;20484;-56
2021/12/12 00:51:04;;;;;;;26.35;15.20;;;;;;;5.14;85.36;101933.16;7388692;19;20014;-59
2021/12/12 00:53:34;;;;;;;29.52;15.10;;;;;;;5.13;85.22;101929.69;7390740;19;20014;-56
2021/12/12 00:56:03;;;;;;;26.55;14.07;;;;;;;5.14;85.29;101928.84;7389750;19;20025;-61
2021/12/12 00:58:32;;;;;;;29.60;15.07;;;;;;;5.15;85.30;101924.50;7389625;19;20050;-60
2021/12/12 01:01:08;;;;;;;25.90;14.70;;;;;;;5.16;85.45;101932.28;7387937;19;20014;-60
2021/12/12 01:03:42;;;;;;;31.33;15.00;;;;;;;5.19;85.24;101929.66;7387820;19;20455;-59
2021/12/12 01:06:12;;;;;;;29.70;13.43;;;;;;;5.19;85.03;101926.22;7387473;19;20011;-60
2021/12/12 01:08:42;;;;;;;29.17;14.98;;;;;;;5.23;85.35;101922.75;7389464;19;20011;-57
2021/12/12 01:11:15;;;;;;;22.45;13.25;;;;;;;5.22;85.30;101926.19;7387611;19;20030;-62
2021/12/12 01:13:46;;;;;;;24.98;13.15;;;;;;;5.22;85.36;101927.94;7387296;19;20015;-56
2021/12/12 01:16:22;;;;;;;28.25;13.70;;;;;;;5.24;85.27;101926.19;7387469;19;20480;-58
2021/12/12 01:18:57;;;;;;;23.42;12.75;;;;;;;5.24;85.31;101921.00;7389547;19;20015;-58
2021/12/12 01:21:29;;;;;;;20.15;11.88;;;;;;;5.28;85.48;101933.09;7387479;19;20018;-59
2021/12/12 01:24:01;;;;;;;26.85;12.70;;;;;;;5.21;85.04;101927.06;7389572;19;20018;-58
2021/12/12 01:26:31;;;;;;;25.58;12.30;;;;;;;5.24;85.06;101931.38;7386485;19;20023;-57
2021/12/12 01:29:03;;;;;;;27.55;13.52;;;;;;;5.26;85.16;101929.63;7388222;19;20006;-56
2021/12/12 01:31:39;;;;;;;25.48;13.70;;;;;;;5.25;84.94;101933.97;7388678;19;20044;-54
2021/12/12 01:34:14;;;;;;;21.75;12.23;;;;;;;5.23;85.05;101930.53;7387797;19;20021;-59
2021/12/12 01:36:51;;;;;;;32.72;12.68;;;;;;;5.24;85.02;101927.03;7388470;19;20142;-59
2021/12/12 01:39:23;;;;;;;27.63;13.35;;;;;;;5.23;84.89;101924.44;7386754;19;20014;-57
2021/12/12 01:42:01;;;;;;;28.52;12.43;;;;;;;5.14;84.98;101926.25;7388986;19;20018;-58
2021/12/12 01:44:38;;;;;;;31.67;12.82;;;;;;;5.12;85.40;101922.75;7393368;19;20021;-59
2021/12/12 01:47:15;;;;;;;24.95;12.07;;;;;;;5.12;85.55;101930.56;7392936;19;20100;-59
2021/12/12 01:49:48;;;;;;;26.85;11.88;;;;;;;5.11;85.68;101931.41;7393950;19;20015;-59
2021/12/12 01:52:20;;;;;;;22.92;11.90;;;;;;;5.06;85.76;101930.59;7394280;19;20018;-57
2021/12/12 01:54:54;;;;;;;28.88;12.77;;;;;;;5.02;86.22;101921.94;7396921;19;20476;-57
2021/12/12 01:57:26;;;;;;;26.13;11.30;;;;;;;5.02;86.42;101923.66;7395177;19;20369;-56
2021/12/12 01:59:56;;;;;;;28.73;11.75;;;;;;;4.99;86.82;101921.94;7395811;19;20127;-59
2021/12/12 02:02:31;;;;;;;27.77;11.88;;;;;;;4.98;87.10;101919.34;7393783;19;20073;-57
2021/12/12 02:05:05;;;;;;;29.80;13.18;;;;;;;4.95;87.47;101919.38;7395701;19;20018;-57
2021/12/12 02:07:37;;;;;;;32.60;12.82;;;;;;;4.88;87.78;101925.44;7392975;19;20030;-60
2021/12/12 02:10:12;;;;;;;30.20;12.90;;;;;;;4.86;88.08;101933.25;7393351;19;20081;-58
2021/12/12 02:12:42;;;;;;;26.60;12.48;;;;;;;4.77;88.41;101926.34;7393325;19;20014;-55
2021/12/12 02:15:14;;;;;;;28.02;12.63;;;;;;;4.76;89.02;101921.16;7393835;19;20022;-57
2021/12/12 02:17:50;;;;;;;28.17;13.30;;;;;;;4.78;89.46;101922.84;7397545;19;20022;-56
2021/12/12 02:20:31;;;;;;;30.25;13.75;;;;;;;4.77;89.74;101923.75;7396608;19;20002;-55
2021/12/12 02:23:12;;;;;;;29.60;14.40;;;;;;;4.75;89.85;101933.25;7393730;19;20095;-56
2021/12/12 02:36:35;;;;;;;30.83;13.98;;;;;;;4.68;90.94;101922.03;7394797;19;20039;-59
2021/12/12 02:39:15;;;;;;;36.85;15.23;;;;;;;4.71;90.99;101920.28;7392673;19;20007;-62
2021/12/12 02:41:48;;;;;;;34.00;14.68;;;;;;;4.66;90.97;101923.75;7393968;19;20010;-61
2021/12/12 02:44:21;;;;;;;30.20;14.38;;;;;;;4.68;91.29;101914.25;7392485;19;20015;-61
2021/12/12 02:46:53;;;;;;;31.20;13.73;;;;;;;4.72;91.16;101912.50;7392590;19;20014;-58
2021/12/12 02:49:38;;;;;;;34.90;16.45;;;;;;;4.75;91.50;101914.22;7395048;19;20015;-56
2021/12/12 02:52:10;;;;;;;32.95;14.60;;;;;;;4.72;91.41;101898.66;7393673;19;20018;-60
2021/12/12 02:54:42;;;;;;;30.23;14.07;;;;;;;4.74;91.56;101902.09;7389540;19;20026;-60
2021/12/12 02:57:12;;;;;;;32.22;14.70;;;;;;;4.72;91.85;101899.50;7392104;19;20074;-58
2021/12/12 02:59:45;;;;;;;31.75;14.55;;;;;;;4.73;91.98;101889.97;7394443;19;20054;-55
2021/12/12 03:02:21;;;;;;;37.92;15.30;;;;;;;4.74;92.16;101889.13;7392547;19;20015;-60
2021/12/12 03:04:50;;;;;;;27.50;14.30;;;;;;;4.74;91.99;101886.53;7394756;19;20484;-57
2021/12/12 03:07:19;;;;;;;36.97;15.70;;;;;;;4.75;92.29;101889.13;7392196;19;20011;-56
2021/12/12 03:09:55;;;;;;;39.90;16.35;;;;;;;4.79;92.38;101888.25;7392769;19;20026;-55
2021/12/12 03:12:31;;;;;;;34.75;15.82;;;;;;;4.79;92.21;101877.84;7394563;19;20043;-56
2021/12/12 03:15:03;;;;;;;31.48;15.77;;;;;;;4.79;92.38;101879.59;7393258;19;20006;-53
2021/12/12 03:17:32;;;;;;;29.88;15.32;;;;;;;4.80;92.42;101877.00;7391290;19;20025;-54
2021/12/12 03:20:09;;;;;;;33.08;16.48;;;;;;;4.82;92.55;101896.03;7390623;19;20011;-54
2021/12/12 03:22:38;;;;;;;34.58;15.45;;;;;;;4.82;92.82;101884.78;7392672;19;20010;-57
2021/12/12 03:25:10;;;;;;;33.85;16.77;;;;;;;4.83;92.88;101887.38;7392656;19;20014;-52
2021/12/12 03:27:39;;;;;;;24.70;12.35;;;;;;;4.89;93.01;101883.03;7389113;19;20016;-54
2021/12/12 03:30:09;;;;;;;35.28;17.17;;;;;;;4.91;92.94;101876.94;7389020;19;20017;-52
2021/12/12 03:32:38;;;;;;;33.50;17.63;;;;;;;4.95;92.96;101885.59;7392008;19;20012;-53
2021/12/12 03:35:08;;;;;;;38.35;18.00;;;;;;;4.99;93.10;101879.53;7392711;19;20025;-54
2021/12/12 03:37:38;;;;;;;33.72;16.75;;;;;;;4.98;93.14;101870.00;7389764;19;20018;-55
2021/12/12 03:40:14;;;;;;;32.80;17.25;;;;;;;4.99;93.24;101877.78;7390659;19;20018;-56
2021/12/12 03:42:45;;;;;;;39.15;18.95;;;;;;;4.99;93.60;101871.75;7390495;19;20073;-57
2021/12/12 03:45:15;;;;;;;34.20;18.90;;;;;;;5.02;93.75;101875.16;7392145;19;20803;-53
2021/12/12 03:47:50;;;;;;;32.25;18.00;;;;;;;5.05;93.78;101870.84;7389376;19;20014;-50
2021/12/12 03:50:22;;;;;;;42.38;21.23;;;;;;;5.09;93.85;101873.41;7390189;19;20014;-54
2021/12/12 03:52:52;;;;;;;41.35;21.55;;;;;;;5.07;93.95;101876.88;7391805;19;20019;-57
2021/12/12 03:55:25;;;;;;;33.75;20.00;;;;;;;5.03;93.99;101876.06;7385795;19;20022;-57
2021/12/12 03:57:55;;;;;;;34.75;19.27;;;;;;;5.03;94.28;101868.25;7391256;19;20017;-53
2021/12/12 04:00:28;;;;;;;38.65;21.05;;;;;;;5.06;94.28;101875.16;7389798;19;20018;-54
2021/12/12 04:02:58;;;;;;;37.53;20.45;;;;;;;5.06;94.63;101880.34;7390445;19;20021;-51
2021/12/12 04:05:27;;;;;;;34.10;20.77;;;;;;;5.05;94.55;101879.50;7390625;19;20473;-58
2021/12/12 04:07:57;;;;;;;40.92;21.48;;;;;;;5.08;94.67;101883.81;7388921;19;20019;-56
2021/12/12 04:10:28;;;;;;;36.97;22.05;;;;;;;5.06;94.89;101880.34;7388857;19;20566;-56
2021/12/12 04:12:59;;;;;;;38.72;21.13;;;;;;;5.06;95.03;101878.63;7391093;19;20025;-54
2021/12/12 04:15:28;;;;;;;35.72;21.67;;;;;;;5.06;95.17;101872.56;7388744;19;20018;-53
2021/12/12 04:17:57;;;;;;;34.78;21.42;;;;;;;5.05;95.15;101871.69;7390265;19;20019;-51
2021/12/12 04:20:29;;;;;;;39.05;22.80;;;;;;;5.06;95.34;101868.25;7390429;19;20355;-53
2021/12/12 04:22:58;;;;;;;31.30;21.13;;;;;;;5.04;95.31;101859.56;7389246;19;20014;-53
2021/12/12 04:25:30;;;;;;;36.88;22.70;;;;;;;5.07;95.62;101866.50;7389889;19;20010;-56
2021/12/12 04:27:59;;;;;;;33.53;20.10;;;;;;;5.05;95.68;101858.72;7388850;19;20503;-53
2021/12/12 04:30:28;;;;;;;34.67;21.52;;;;;;;5.06;95.81;101870.84;7389695;19;20011;-55
2021/12/12 04:32:56;;;;;;;38.28;23.23;;;;;;;5.09;96.00;101859.56;7389616;19;20024;-55
2021/12/12 04:35:28;;;;;;;32.05;20.83;;;;;;;5.11;96.04;101858.69;7390119;19;20014;-54
2021/12/12 04:37:59;;;;;;;30.05;20.52;;;;;;;5.10;95.98;101864.78;7389652;19;20388;-55
2021/12/12 04:40:33;;;;;;;37.25;22.42;;;;;;;5.13;96.25;101861.25;7387676;19;20553;-54
2021/12/12 04:43:03;;;;;;;31.40;21.27;;;;;;;5.14;96.05;101861.28;7388071;19;20014;-56
2021/12/12 04:45:43;;;;;;;33.00;21.27;;;;;;;5.18;96.36;101867.31;7389156;19;20014;-53
2021/12/12 04:51:06;;;;;;;37.05;21.88;;;;;;;5.20;96.42;101876.84;7389897;19;20131;-53
2021/12/12 04:53:39;;;;;;;32.58;21.00;;;;;;;5.22;96.57;101870.78;7387858;19;20029;-50
2021/12/12 04:56:18;;;;;;;34.72;22.55;;;;;;;5.21;96.64;101880.28;7388070;19;20014;-50
2021/12/12 04:58:52;;;;;;;37.42;23.05;;;;;;;5.21;96.70;101869.88;7389172;19;20020;-55
2021/12/12 05:01:25;;;;;;;37.10;23.35;;;;;;;5.24;96.70;101874.22;7388995;19;20321;-56
2021/12/12 05:03:59;;;;;;;35.47;23.27;;;;;;;5.23;96.73;101862.97;7389015;19;20010;-54
2021/12/12 05:06:31;;;;;;;37.28;22.67;;;;;;;5.25;96.89;101861.22;7386916;19;20023;-54
2021/12/12 05:09:05;;;;;;;38.03;23.05;;;;;;;5.26;96.98;101854.28;7387141;19;20014;-55
2021/12/12 05:11:45;;;;;;;35.70;23.15;;;;;;;5.29;96.91;101860.31;7387354;19;20429;-54
2021/12/12 05:14:22;;;;;;;33.50;21.80;;;;;;;5.30;97.07;101859.47;7388807;19;20094;-55
2021/12/12 05:16:54;;;;;;;33.88;22.35;;;;;;;5.34;97.15;101858.59;7387616;19;20006;-54
2021/12/12 05:19:27;;;;;;;37.20;23.70;;;;;;;5.29;96.97;101852.53;7393587;19;20011;-55
2021/12/12 05:22:00;;;;;;;33.55;21.63;;;;;;;5.30;96.95;101859.47;7393196;19;20347;-56
2021/12/12 05:24:32;;;;;;;32.70;22.02;;;;;;;5.33;97.13;101866.34;7396329;19;20479;-53
2021/12/12 05:27:07;;;;;;;32.50;21.80;;;;;;;5.36;97.42;101861.16;7395382;19;20015;-53
2021/12/12 05:29:41;;;;;;;35.70;22.70;;;;;;;5.38;97.53;101857.66;7393901;19;20018;-54
2021/12/12 05:32:12;;;;;;;33.67;23.30;;;;;;;5.35;97.40;101849.88;7393351;19;20020;-54
2021/12/12 05:34:43;;;;;;;34.60;23.67;;;;;;;5.33;97.47;101848.16;7392731;19;20018;-54
2021/12/12 05:37:14;;;;;;;46.55;25.30;;;;;;;5.38;97.54;101849.00;7395506;19;20022;-54
2021/12/12 05:39:44;;;;;;;32.40;22.33;;;;;;;5.36;97.46;101849.03;7394274;19;20130;-55
2021/12/12 05:42:17;;;;;;;33.75;23.58;;;;;;;5.37;97.63;101855.06;7395861;19;20016;-55
2021/12/12 05:44:46;;;;;;;37.03;23.48;;;;;;;5.38;97.73;101857.66;7395903;19;20022;-54
2021/12/12 05:47:16;;;;;;;35.08;24.60;;;;;;;5.43;97.76;101860.25;7392577;19;20320;-55
2021/12/12 05:49:45;;;;;;;38.67;24.88;;;;;;;5.46;97.97;101855.03;7393199;19;20348;-52
2021/12/12 05:52:17;;;;;;;38.63;24.50;;;;;;;5.51;98.04;101860.19;7395415;19;20021;-54
2021/12/12 05:54:48;;;;;;;38.30;24.30;;;;;;;5.54;97.88;101842.88;7395555;19;20010;-53
2021/12/12 05:57:24;;;;;;;40.63;24.67;;;;;;;5.57;97.94;101861.91;7392231;19;20438;-57
2021/12/12 05:59:55;;;;;;;36.83;25.92;;;;;;;5.59;97.74;101855.81;7392904;19;20368;-53
2021/12/12 06:02:25;;;;;;;45.70;27.80;;;;;;;5.59;97.94;101861.03;7395418;19;20333;-53
2021/12/12 06:04:57;;;;;;;41.35;27.48;;;;;;;5.61;97.76;101858.41;7392550;19;20013;-53
2021/12/12 06:07:28;;;;;;;38.40;26.27;;;;;;;5.60;98.02;101867.97;7391760;19;20021;-54
2021/12/12 06:09:58;;;;;;;40.83;28.15;;;;;;;5.59;98.16;101863.63;7392091;19;20018;-53
2021/12/12 06:12:30;;;;;;;41.70;29.13;;;;;;;5.59;98.11;101867.94;7394967;19;20023;-55
2021/12/12 06:15:00;;;;;;;45.17;29.52;;;;;;;5.61;98.13;101854.06;7394767;19;20017;-53
2021/12/12 06:17:29;;;;;;;38.75;27.48;;;;;;;5.60;98.27;101861.88;7391394;19;20078;-55
2021/12/12 06:20:01;;;;;;;45.78;29.10;;;;;;;5.59;98.49;101857.53;7392798;19;20015;-53
2021/12/12 06:22:30;;;;;;;45.47;29.27;;;;;;;5.61;98.49;101858.41;7392171;19;20025;-52
2021/12/12 06:25:00;;;;;;;47.92;29.65;;;;;;;5.64;98.61;101861.84;7392011;19;20507;-51
2021/12/12 06:27:31;;;;;;;45.10;31.55;;;;;;;5.66;98.60;101857.50;7393372;19;20013;-51
2021/12/12 06:30:00;;;;;;;49.88;29.92;;;;;;;5.68;98.69;101860.09;7392410;19;20360;-56
2021/12/12 06:32:29;;;;;;;47.20;31.35;;;;;;;5.67;98.71;101856.63;7393251;19;20023;-57
2021/12/12 06:35:01;;;;;;;46.90;29.15;;;;;;;5.69;98.65;101854.88;7394155;19;20013;-56
2021/12/12 06:37:30;;;;;;;51.10;31.45;;;;;;;5.70;98.67;101848.81;7390828;19;20392;-56
2021/12/12 06:39:59;;;;;;;45.60;31.23;;;;;;;5.69;98.63;101849.69;7391912;19;20021;-54
2021/12/12 06:42:32;;;;;;;42.35;29.80;;;;;;;5.72;98.88;101848.78;7391857;19;20107;-56
2021/12/12 06:45:01;;;;;;;46.13;30.17;;;;;;;5.75;99.00;101861.78;7394189;19;20015;-55
2021/12/12 06:47:30;;;;;;;51.13;32.42;;;;;;;5.73;98.83;101853.09;7393207;19;20380;-52
2021/12/12 06:50:00;;;;;;;46.88;31.35;;;;;;;5.71;99.05;101860.91;7391589;19;20028;-52
2021/12/12 06:52:30;;;;;;;47.75;31.10;;;;;;;5.73;99.14;101855.69;7392026;19;20019;-54
2021/12/12 06:55:00;;;;;;;50.00;30.80;;;;;;;5.76;99.18;101865.22;7391979;19;20007;-55
2021/12/12 06:57:31;;;;;;;44.83;30.35;;;;;;;5.80;99.10;101869.53;7392847;19;20017;-58
2021/12/12 07:00:00;;;;;;;48.58;31.33;;;;;;;5.81;99.20;101872.13;7392264;19;20019;-51
2021/12/12 07:02:30;;;;;;;49.60;31.63;;;;;;;5.80;99.24;101891.22;7393468;19;20015;-54
2021/12/12 07:04:59;;;;;;;54.47;33.22;;;;;;;5.84;99.31;101882.50;7393771;19;20025;-51
2021/12/12 07:07:29;;;;;;;48.28;30.10;;;;;;;5.87;99.31;101886.81;7394089;19;20015;-50
2021/12/12 07:09:58;;;;;;;62.13;34.40;;;;;;;5.90;99.29;101886.78;7391770;19;20357;-54
2021/12/12 07:12:28;;;;;;;47.22;30.50;;;;;;;5.91;99.47;101892.88;7392350;19;20014;-55
2021/12/12 07:14:59;;;;;;;51.50;30.45;;;;;;;5.92;99.54;101894.59;7393222;19;20014;-56
2021/12/12 07:17:29;;;;;;;70.07;35.22;;;;;;;5.93;99.45;101885.91;7392072;19;20014;-55
2021/12/12 07:19:58;;;;;;;59.58;33.72;;;;;;;5.91;99.56;101880.72;7390868;19;20025;-58
2021/12/12 07:22:27;;;;;;;61.53;33.08;;;;;;;5.92;99.62;101884.19;7392864;19;20032;-54
2021/12/12 07:24:56;;;;;;;54.47;31.40;;;;;;;5.93;99.63;101894.59;7392293;19;20007;-53
2021/12/12 07:27:25;;;;;;;56.17;31.33;;;;;;;5.96;99.75;101891.09;7389514;19;20029;-57
2021/12/12 07:30:01;;;;;;;58.05;32.47;;;;;;;5.99;99.88;101889.38;7390593;19;20025;-54
2021/12/12 07:32:30;;;;;;;62.08;32.95;;;;;;;6.02;99.78;101891.09;7391588;19;20021;-57
2021/12/12 07:35:00;;;;;;;52.85;31.30;;;;;;;6.00;99.69;101888.50;7391537;19;20014;-54
2021/12/12 07:37:31;;;;;;;63.42;32.20;;;;;;;6.04;99.61;101887.56;7391185;19;20028;-54
2021/12/12 07:40:01;;;;;;;56.85;31.58;;;;;;;6.06;99.71;101897.97;7388812;19;20026;-52
2021/12/12 07:42:30;;;;;;;59.28;33.08;;;;;;;6.10;99.88;101893.63;7391550;19;20029;-54
2021/12/12 07:45:02;;;;;;;57.60;32.80;;;;;;;6.11;99.83;101895.34;7389593;19;20484;-54
2021/12/12 07:47:32;;;;;;;57.28;31.65;;;;;;;6.13;99.74;101897.06;7390777;19;20344;-54
2021/12/12 07:50:01;;;;;;;75.25;36.53;;;;;;;6.14;99.73;101897.94;7389316;19;20020;-54
2021/12/12 07:52:31;;;;;;;68.30;33.88;;;;;;;6.13;99.71;101897.06;7389182;19;20018;-56
2021/12/12 07:55:00;;;;;;;75.70;35.90;;;;;;;6.12;99.80;101897.94;7392129;19;20494;-54
2021/12/12 07:57:30;;;;;;;61.88;32.95;;;;;;;6.14;99.83;101905.72;7389992;19;20006;-54
2021/12/12 08:00:02;;;;;;;62.72;33.45;;;;;;;6.14;99.83;101903.13;7389527;19;20017;-57
2021/12/12 08:02:32;;;;;;;75.85;34.20;;;;;;;6.16;99.80;101902.25;7391567;19;20019;-55
2021/12/12 08:05:01;;;;;;;61.17;34.50;;;;;;;6.17;100.00;101911.75;7389676;19;20359;-53
2021/12/12 08:07:32;;;;;;;67.38;33.80;;;;;;;6.20;100.00;101913.47;7389918;19;20016;-54
2021/12/12 08:10:02;;;;;;;63.17;34.30;;;;;;;6.23;100.00;101916.06;7389502;19;20015;-53
2021/12/12 08:12:32;;;;;;;69.50;35.63;;;;;;;6.27;100.00;101916.91;7390145;19;20528;-54
2021/12/12 08:15:05;;;;;;;60.30;33.75;;;;;;;6.28;100.00;101922.09;7391230;19;20025;-55
2021/12/12 08:17:34;;;;;;;68.68;35.88;;;;;;;6.32;100.00;101926.41;7390550;19;20019;-55
2021/12/12 08:20:06;;;;;;;68.90;35.63;;;;;;;6.33;100.00;101933.34;7389604;19;20345;-54
2021/12/12 08:22:36;;;;;;;66.28;35.58;;;;;;;6.38;100.00;101934.16;7329264;19;20397;-55
2021/12/12 08:25:09;;;;;;;67.53;35.58;;;;;;;6.43;100.00;101935.84;7391081;19;20014;-55
2021/12/12 08:27:38;;;;;;;69.10;35.85;;;;;;;6.46;100.00;101939.31;7394118;19;20509;-54
2021/12/12 08:30:14;;;;;;;77.68;35.83;;;;;;;6.48;100.00;101942.75;7389664;19;20018;-56
2021/12/12 08:32:44;;;;;;;77.82;36.22;;;;;;;6.51;100.00;101940.09;7390173;19;20018;-59
2021/12/12 08:35:15;;;;;;;70.78;34.55;;;;;;;6.53;100.00;101945.28;7390044;19;20036;-56
2021/12/12 08:37:45;;;;;;;82.30;39.05;;;;;;;6.54;100.00;101947.03;7389967;19;20498;-52
2021/12/12 08:40:18;;;;;;;77.80;37.40;;;;;;;6.55;100.00;101951.38;7388203;19;20033;-53
2021/12/12 08:42:47;;;;;;;82.65;38.00;;;;;;;6.57;100.00;101952.22;7390301;19;20022;-54
2021/12/12 08:45:21;;;;;;;79.70;37.92;;;;;;;6.59;100.00;101945.25;7391014;19;20023;-54
2021/12/12 08:47:51;;;;;;;74.15;37.30;;;;;;;6.61;100.00;101947.84;7389896;19;20010;-56
2021/12/12 08:50:24;;;;;;;76.32;36.08;;;;;;;6.63;100.00;101956.50;7388071;19;20011;-57
2021/12/12 08:52:55;;;;;;;101.70;41.40;;;;;;;6.63;100.00;101956.50;7381159;19;20015;-55
2021/12/12 08:55:34;;;;;;;77.20;36.38;;;;;;;6.67;100.00;101964.25;7388750;19;20022;-56
2021/12/12 08:58:14;;;;;;;90.28;38.90;;;;;;;6.67;100.00;101960.81;7389315;19;20014;-55
2021/12/12 09:00:50;;;;;;;79.90;37.55;;;;;;;6.68;100.00;101957.31;7388441;19;20013;-55
2021/12/12 09:03:23;;;;;;;78.30;38.38;;;;;;;6.72;100.00;101970.31;7387925;19;20027;-56
2021/12/12 09:05:52;;;;;;;93.95;40.47;;;;;;;6.74;100.00;101970.28;7389281;19;20018;-58
2021/12/12 09:08:29;;;;;;;94.65;39.55;;;;;;;6.77;100.00;101972.84;7391609;19;20022;-55
2021/12/12 09:11:02;;;;;;;88.05;39.15;;;;;;;6.77;100.00;101975.47;7392432;19;20087;-57
2021/12/12 09:13:37;;;;;;;92.20;40.97;;;;;;;6.79;100.00;101983.25;7394873;19;20025;-58
2021/12/12 09:16:13;;;;;;;95.60;39.60;;;;;;;6.78;100.00;101974.59;7400122;19;20022;-57
2021/12/12 09:18:46;;;;;;;83.13;39.05;;;;;;;6.81;100.00;101981.50;7395202;19;20129;-56
2021/12/12 09:21:25;;;;;;;77.90;38.83;;;;;;;6.83;100.00;101982.34;7397978;19;20050;-55
2021/12/12 09:24:06;;;;;;;86.05;41.75;;;;;;;6.85;100.00;101989.28;7393980;19;20017;-54
2021/12/12 09:26:39;;;;;;;78.80;39.05;;;;;;;6.89;100.00;101984.88;7389234;19;20026;-56
2021/12/12 09:29:12;;;;;;;;;;;;;;;6.88;100.00;101986.63;7389809;19;20034;-54
2021/12/12 09:31:48;;;;;;;78.53;36.30;;;;;;;6.89;100.00;101990.97;7388975;19;19996;-53
2021/12/12 09:34:22;;;;;;;82.15;37.13;;;;;;;6.92;100.00;101990.94;7388492;19;20014;-58
2021/12/12 09:36:58;;;;;;;86.60;41.08;;;;;;;6.96;100.00;101990.91;7387368;19;20022;-54
2021/12/12 09:39:32;;;;;;;77.65;39.40;;;;;;;6.96;100.00;101988.31;7386246;19;20023;-54
2021/12/12 09:42:13;;;;;;;85.18;40.25;;;;;;;6.99;100.00;101996.09;7388497;19;20017;-53
2021/12/12 09:45:11;;;;;;;112.45;45.17;;;;;;;7.01;100.00;101999.56;7387037;19;20021;-55
2021/12/12 09:51:14;;;;;;;93.30;41.65;;;;;;;7.03;100.00;101987.34;7385194;19;20377;-56
2021/12/12 09:51:17;;;;;;;104.28;44.42;;;;;;;7.04;100.00;101991.69;7387474;19;20360;-57
2021/12/12 09:54:23;;;;;;;100.28;43.45;;;;;;;7.05;100.00;101994.28;7388027;19;20015;-59
2021/12/12 09:56:58;;;;;;;90.47;41.15;;;;;;;7.07;100.00;101994.28;7384180;19;20018;-57
2021/12/12 09:59:40;;;;;;;105.07;44.58;;;;;;;7.12;100.00;101999.44;7386757;19;20136;-57
2021/12/12 10:02:20;;;;;;;97.13;42.55;;;;;;;7.14;100.00;101998.53;7385082;19;20015;-59
2021/12/12 10:05:04;;;;;;;102.53;42.45;;;;;;;7.17;100.00;102002.84;7394426;19;20015;-59
2021/12/12 10:07:46;;;;;;;108.43;44.63;;;;;;;7.18;100.00;102000.22;7392621;19;20492;-59
2021/12/12 10:10:22;;;;;;;103.88;44.17;;;;;;;7.22;100.00;101996.72;7392509;19;20484;-59
2021/12/12 10:13:00;;;;;;;88.88;43.53;;;;;;;7.27;100.00;102009.69;7394924;19;20340;-58
2021/12/12 10:15:34;;;;;;;104.45;43.88;;;;;;;7.30;100.00;102004.44;7392554;19;20024;-58
2021/12/12 10:18:11;;;;;;;110.60;45.30;;;;;;;7.38;100.00;102009.53;7391454;19;20014;-59
2021/12/12 10:20:49;;;;;;;91.93;41.55;;;;;;;7.38;100.00;102004.34;7392226;19;20022;-58
2021/12/12 10:23:29;;;;;;;102.97;42.65;;;;;;;7.39;100.00;101996.53;7394764;19;20356;-58
2021/12/12 10:26:05;;;;;;;107.22;41.13;;;;;;;7.44;100.00;101996.47;7393615;19;20018;-58
2021/12/12 10:28:38;;;;;;;87.22;39.65;;;;;;;7.48;100.00;102003.38;7393835;19;20018;-58
2021/12/12 10:31:07;;;;;;;;;;;;;;;7.47;100.00;102000.78;7392632;19;20028;-56
2021/12/12 10:33:42;;;;;;;79.75;37.60;;;;;;;7.49;100.00;101994.63;7391590;19;19950;-59
2021/12/12 10:36:17;;;;;;;71.03;36.38;;;;;;;7.51;100.00;101995.50;7393015;19;20335;-58
2021/12/12 10:38:55;;;;;;;71.68;36.25;;;;;;;7.56;100.00;101993.69;7393190;19;20011;-57
2021/12/12 10:41:28;;;;;;;84.40;37.90;;;;;;;7.60;100.00;101999.72;7394061;19;20016;-60
2021/12/12 10:44:02;;;;;;;75.90;35.30;;;;;;;7.58;100.00;101999.75;7391852;19;20494;-56
2021/12/12 10:46:39;;;;;;;59.42;32.75;;;;;;;7.62;100.00;101992.72;7390329;19;20010;-58
2021/12/12 10:49:17;;;;;;;61.05;32.70;;;;;;;7.63;100.00;101999.69;7391412;19;20018;-56
2021/12/12 10:51:53;;;;;;;67.78;34.75;;;;;;;7.68;100.00;101989.19;7390766;19;20014;-59
2021/12/12 10:54:26;;;;;;;64.35;33.35;;;;;;;7.67;100.00;101984.88;7393614;19;20499;-59
2021/12/12 10:57:05;;;;;;;64.93;33.90;;;;;;;7.69;100.00;101989.16;7390353;19;20045;-53
2021/12/12 10:59:39;;;;;;;64.07;33.35;;;;;;;7.71;100.00;101992.63;7390507;19;20015;-58
2021/12/12 11:02:11;;;;;;;63.58;33.42;;;;;;;7.72;100.00;101989.16;7390685;19;20010;-59
2021/12/12 11:04:45;;;;;;;67.60;32.85;;;;;;;7.73;100.00;101985.63;7390938;19;20024;-59
2021/12/12 11:07:22;;;;;;;58.65;33.22;;;;;;;7.75;100.00;101977.78;7389668;19;20456;-58
2021/12/12 11:09:59;;;;;;;63.78;33.03;;;;;;;7.79;100.00;101987.28;7390817;19;20428;-57
2021/12/12 11:12:36;;;;;;;65.85;33.60;;;;;;;7.78;100.00;101983.84;7389641;19;20014;-57
2021/12/12 11:15:09;;;;;;;58.05;31.65;;;;;;;7.78;100.00;101986.44;7390230;19;20010;-59
2021/12/12 11:17:42;;;;;;;55.67;31.38;;;;;;;7.79;100.00;101982.06;7392076;19;20011;-59
2021/12/12 11:20:19;;;;;;;70.55;32.63;;;;;;;7.80;100.00;101979.44;7391005;19;20028;-58
2021/12/12 11:22:55;;;;;;;67.63;31.90;;;;;;;7.82;100.00;101987.25;7392444;19;20011;-57
2021/12/12 11:25:28;;;;;;;54.72;29.65;;;;;;;7.83;100.00;101988.13;7391119;19;20015;-55
2021/12/12 11:28:02;;;;;;;50.88;28.23;;;;;;;7.84;100.00;101998.53;7392422;19;20550;-58
2021/12/12 11:30:34;;;;;;;56.50;31.38;;;;;;;7.85;100.00;101987.22;7389655;19;20025;-57
2021/12/12 11:33:04;;;;;;;;;;;;;;;7.85;100.00;101984.63;7392636;19;20479;-60
2021/12/12 11:35:33;;;;;;;54.83;28.23;;;;;;;7.87;100.00;101988.06;7391812;19;19957;-60
2021/12/12 11:38:10;;;;;;;60.92;29.58;;;;;;;7.89;100.00;101981.06;7388482;19;20006;-58
2021/12/12 11:40:44;;;;;;;54.45;27.83;;;;;;;7.92;100.00;101988.00;7389213;19;20018;-58
2021/12/12 11:43:19;;;;;;;53.00;28.73;;;;;;;7.94;100.00;101986.25;7388986;19;20021;-58
2021/12/12 11:45:56;;;;;;;51.20;29.23;;;;;;;7.96;100.00;101984.44;7390149;19;20014;-57
2021/12/12 11:48:33;;;;;;;57.17;30.58;;;;;;;7.99;100.00;101991.38;7391055;19;20015;-58
2021/12/12 11:51:08;;;;;;;52.45;28.95;;;;;;;8.02;100.00;101999.16;7389433;19;20134;-59
2021/12/12 11:53:43;;;;;;;51.35;27.73;;;;;;;8.04;100.00;101998.25;7389277;19;20025;-59